Time;durP1;ratioP1;P1;durP2;ratioP2;P2;SDS_P1;SDS_P2;PMS_P1;PMS_P2;Temp;Humidity;BMP_temperature;BMP_pressure;BME280_temperature;BME280_humidity;BME280_pressure;Samples;Min_cycle;Max_cycle;Signal;HPM_P1;HPM_P2
2023/01/16 00:00:59;;;;;;;1.40;0.73;;;6.10;99.90;;;;;;5056833;28;20035;-67
2023/01/16 00:03:25;;;;;;;3.42;1.08;;;6.10;99.90;;;;;;5056526;28;20116;-66
2023/01/16 00:05:51;;;;;;;0.70;0.70;;;6.10;99.90;;;;;;5056391;28;20109;-66
2023/01/16 00:08:16;;;;;;;1.48;0.90;;;6.10;99.90;;;;;;5056550;28;20413;-70
2023/01/16 00:10:44;;;;;;;1.60;0.70;;;6.10;99.90;;;;;;5056625;28;20033;-66
2023/01/16 00:13:11;;;;;;;1.20;0.98;;;6.10;99.90;;;;;;5056149;28;20029;-66
2023/01/16 00:15:37;;;;;;;3.40;1.10;;;6.10;99.90;;;;;;5055531;28;20040;-66
2023/01/16 00:18:03;;;;;;;2.30;0.88;;;6.10;99.90;;;;;;5056120;28;20029;-66
2023/01/16 00:20:29;;;;;;;1.70;1.10;;;6.10;99.90;;;;;;5055447;28;20033;-67
2023/01/16 00:22:54;;;;;;;1.77;1.00;;;6.10;99.90;;;;;;5055987;28;20397;-66
2023/01/16 00:25:20;;;;;;;1.92;1.30;;;6.10;99.90;;;;;;5054162;28;20028;-66
2023/01/16 00:27:45;;;;;;;2.17;1.23;;;6.10;99.90;;;;;;5055630;28;20041;-66
2023/01/16 00:30:11;;;;;;;2.80;1.70;;;6.10;99.90;;;;;;5055417;28;20079;-67
2023/01/16 00:32:37;;;;;;;2.17;1.35;;;6.10;99.90;;;;;;5054944;28;20355;-67
2023/01/16 00:35:03;;;;;;;3.60;1.35;;;6.10;99.90;;;;;;5055006;28;20029;-67
2023/01/16 00:37:29;;;;;;;1.77;1.10;;;6.00;99.90;;;;;;5054578;28;20036;-66
2023/01/16 00:39:54;;;;;;;1.23;0.90;;;6.00;99.90;;;;;;5054828;28;20053;-65
2023/01/16 00:42:20;;;;;;;1.50;1.13;;;6.00;99.90;;;;;;5054384;28;20056;-67
2023/01/16 00:44:46;;;;;;;1.42;1.17;;;6.10;99.90;;;;;;5054769;28;20076;-66
2023/01/16 00:47:11;;;;;;;2.00;1.30;;;6.10;99.90;;;;;;5054840;28;20049;-67
2023/01/16 00:49:37;;;;;;;3.88;1.02;;;6.10;99.90;;;;;;5054515;28;20476;-67
2023/01/16 00:52:03;;;;;;;1.60;1.20;;;6.00;99.90;;;;;;5054858;28;20017;-66
2023/01/16 00:54:29;;;;;;;2.70;0.90;;;6.00;99.90;;;;;;5054427;28;20367;-67
2023/01/16 00:56:55;;;;;;;2.65;1.00;;;6.00;99.90;;;;;;5054485;28;20086;-67
2023/01/16 00:59:20;;;;;;;2.78;0.90;;;6.00;99.90;;;;;;5054099;28;20100;-71
2023/01/16 01:01:47;;;;;;;2.13;1.08;;;6.00;99.90;;;;;;5054359;28;20079;-67
2023/01/16 01:04:12;;;;;;;3.55;1.17;;;6.00;99.90;;;;;;5054660;28;20071;-67
2023/01/16 01:06:39;;;;;;;2.80;1.13;;;6.00;99.90;;;;;;5054261;28;20080;-67
2023/01/16 01:09:04;;;;;;;1.90;1.20;;;6.00;99.90;;;;;;5053862;28;20029;-66
2023/01/16 01:11:30;;;;;;;1.45;0.82;;;6.00;99.90;;;;;;5053876;28;20025;-67
2023/01/16 01:13:56;;;;;;;1.80;1.00;;;6.00;99.90;;;;;;5054296;28;20118;-67
2023/01/16 01:16:22;;;;;;;1.70;1.15;;;6.00;99.90;;;;;;5052820;28;20450;-71
2023/01/16 01:18:48;;;;;;;1.40;1.00;;;6.00;99.90;;;;;;5054353;28;20100;-67
2023/01/16 01:21:13;;;;;;;1.15;0.90;;;6.00;99.90;;;;;;5054322;28;20032;-68
2023/01/16 01:23:39;;;;;;;2.28;1.15;;;6.00;99.90;;;;;;5053651;28;20119;-67
2023/01/16 01:26:14;;;;;;;1.48;0.98;;;6.00;99.90;;;;;;5052995;28;20090;-66
2023/01/16 01:28:40;;;;;;;1.38;0.75;;;6.00;99.90;;;;;;5053909;28;20025;-67
2023/01/16 01:31:09;;;;;;;0.80;0.70;;;6.00;99.40;;;;;;5054149;28;20036;-67
2023/01/16 01:33:35;;;;;;;1.95;0.90;;;6.00;99.10;;;;;;5053373;28;20036;-67
2023/01/16 01:36:02;;;;;;;1.20;0.65;;;6.00;98.90;;;;;;5053826;28;20079;-67
2023/01/16 01:38:28;;;;;;;2.60;0.80;;;6.00;98.70;;;;;;5053652;28;20033;-67
2023/01/16 01:40:53;;;;;;;2.35;0.85;;;6.00;98.70;;;;;;5054021;28;20140;-66
2023/01/16 01:43:19;;;;;;;2.28;0.90;;;6.00;98.60;;;;;;5052653;28;20056;-67
2023/01/16 01:45:51;;;;;;;1.15;0.70;;;6.00;98.40;;;;;;5053412;28;20036;-67
2023/01/16 01:48:30;;;;;;;3.08;0.90;;;6.00;98.50;;;;;;5053742;28;20057;-67
2023/01/16 01:51:07;;;;;;;2.70;1.00;;;6.00;98.70;;;;;;5053895;28;20025;-67
2023/01/16 01:53:48;;;;;;;1.30;0.82;;;6.00;98.20;;;;;;5053816;28;20025;-68
2023/01/16 01:56:18;;;;;;;1.95;0.90;;;6.00;98.30;;;;;;5053733;28;20029;-67
2023/01/16 01:58:48;;;;;;;1.73;0.90;;;6.00;98.40;;;;;;5053325;28;20446;-65
2023/01/16 02:01:14;;;;;;;3.80;0.90;;;6.10;98.30;;;;;;5053489;28;20409;-66
2023/01/16 02:03:52;;;;;;;2.65;0.77;;;6.00;98.00;;;;;;5053189;28;20025;-66
2023/01/16 02:06:21;;;;;;;6.45;0.90;;;6.00;97.80;;;;;;5053325;28;20063;-66
2023/01/16 02:08:51;;;;;;;1.38;0.50;;;6.00;96.80;;;;;;5053047;28;20493;-66
2023/01/16 02:11:26;;;;;;;2.20;0.57;;;6.00;96.50;;;;;;5052294;28;20394;-66
2023/01/16 02:14:04;;;;;;;1.35;0.63;;;6.10;96.70;;;;;;5053259;28;20527;-67
2023/01/16 02:19:31;;;;;;;3.35;0.82;;;6.10;96.30;;;;;;5053138;28;20028;-66
2023/01/16 02:22:00;;;;;;;1.58;0.55;;;6.10;96.30;;;;;;5053197;28;20392;-66
2023/01/16 02:24:53;;;;;;;1.48;0.68;;;6.10;96.20;;;;;;5052888;28;20025;-66
2023/01/16 02:27:40;;;;;;;1.60;0.90;;;6.10;96.30;;;;;;5053642;28;20029;-66
2023/01/16 02:30:44;;;;;;;0.75;0.60;;;6.10;96.50;;;;;;5053424;28;20113;-66
2023/01/16 02:33:13;;;;;;;1.35;0.75;;;6.10;96.50;;;;;;5047923;28;20037;-66
2023/01/16 02:36:00;;;;;;;2.80;0.73;;;6.10;95.80;;;;;;5052669;28;20028;-66
2023/01/16 02:38:42;;;;;;;0.95;0.68;;;6.20;95.50;;;;;;5052591;28;20108;-66
2023/01/16 02:41:24;;;;;;;2.22;0.73;;;6.20;95.40;;;;;;5052483;28;20410;-66
2023/01/16 02:43:55;;;;;;;2.38;0.60;;;6.20;95.20;;;;;;5052579;28;20029;-66
2023/01/16 02:46:42;;;;;;;1.02;0.55;;;6.20;94.40;;;;;;5052659;28;20021;-66
2023/01/16 02:49:20;;;;;;;1.58;0.52;;;6.20;94.20;;;;;;5052453;28;20025;-67
2023/01/16 02:52:03;;;;;;;2.47;0.75;;;6.20;93.80;;;;;;5053072;28;20029;-67
2023/01/16 02:54:40;;;;;;;2.13;0.50;;;6.10;93.20;;;;;;5063179;28;20025;-66
2023/01/16 02:57:08;;;;;;;1.42;0.60;;;6.10;92.90;;;;;;5063201;28;20108;-68
2023/01/16 02:59:34;;;;;;;5.30;0.82;;;6.10;93.00;;;;;;5054905;28;20117;-65
2023/01/16 03:02:00;;;;;;;2.13;0.82;;;6.10;92.90;;;;;;5052905;28;20366;-66
2023/01/16 03:04:44;;;;;;;1.45;0.80;;;6.10;92.90;;;;;;5052404;28;20496;-66
2023/01/16 03:07:31;;;;;;;1.83;0.50;;;6.10;93.20;;;;;;5052699;28;20363;-66
2023/01/16 03:10:18;;;;;;;2.63;0.50;;;6.10;93.30;;;;;;5052328;28;20057;-66
2023/01/16 03:13:37;;;;;;;1.15;0.70;;;6.20;93.00;;;;;;5052505;28;20037;-67
2023/01/16 03:16:05;;;;;;;0.98;0.70;;;6.10;92.70;;;;;;5010331;28;20034;-67
2023/01/16 03:18:50;;;;;;;2.13;0.70;;;6.20;92.70;;;;;;5010548;28;20487;-67
2023/01/16 03:21:30;;;;;;;0.93;0.63;;;6.20;92.50;;;;;;5036009;28;20049;-67
2023/01/16 03:24:13;;;;;;;1.13;0.73;;;6.20;92.20;;;;;;5052147;28;20029;-66
2023/01/16 03:26:47;;;;;;;0.93;0.50;;;6.20;92.00;;;;;;5051864;28;20572;-66
2023/01/16 03:29:16;;;;;;;1.35;0.60;;;6.20;91.90;;;;;;5052519;28;20025;-66
2023/01/16 03:31:57;;;;;;;1.13;0.85;;;6.20;92.00;;;;;;5052109;28;20032;-67
2023/01/16 03:34:32;;;;;;;1.60;0.80;;;6.20;91.80;;;;;;5052196;28;20478;-66
2023/01/16 03:37:30;;;;;;;1.48;0.82;;;6.10;92.00;;;;;;5052156;28;20436;-67
2023/01/16 03:40:00;;;;;;;3.47;0.90;;;6.20;91.90;;;;;;5027318;28;20075;-67
2023/01/16 03:42:36;;;;;;;3.40;0.80;;;6.20;92.00;;;;;;5032201;28;20385;-67
2023/01/16 03:45:19;;;;;;;2.17;0.57;;;6.20;91.80;;;;;;5032582;28;20081;-68
2023/01/16 03:48:02;;;;;;;0.80;0.60;;;6.20;92.00;;;;;;5031809;28;20025;-67
2023/01/16 03:50:30;;;;;;;1.02;0.55;;;6.20;92.40;;;;;;5032481;28;20452;-67
2023/01/16 03:53:00;;;;;;;1.85;0.80;;;6.20;92.50;;;;;;5031866;28;20038;-67
2023/01/16 03:55:52;;;;;;;1.90;0.80;;;6.20;92.40;;;;;;5031508;28;20041;-67
2023/01/16 03:58:34;;;;;;;;;;;6.20;92.40;;;;;;5021444;28;20044;-67
2023/01/16 04:01:19;;;;;;;1.98;0.70;;;6.10;92.30;;;;;;5035892;28;19956;-67
2023/01/16 04:04:00;;;;;;;2.72;0.98;;;6.20;92.40;;;;;;5035225;28;20478;-66
2023/01/16 04:06:45;;;;;;;2.92;0.70;;;6.10;92.50;;;;;;5035891;28;20040;-66
2023/01/16 04:09:33;;;;;;;2.67;0.70;;;6.10;92.60;;;;;;5035794;28;20041;-66
2023/01/16 04:12:00;;;;;;;3.42;0.85;;;6.10;92.60;;;;;;5035340;28;20060;-66
2023/01/16 04:14:29;;;;;;;1.33;0.75;;;6.10;92.60;;;;;;5035392;28;20451;-66
2023/01/16 04:17:03;;;;;;;1.48;0.85;;;6.10;92.70;;;;;;5034701;28;20103;-66
2023/01/16 04:19:32;;;;;;;2.50;0.90;;;6.10;92.40;;;;;;5033986;28;20102;-68
2023/01/16 04:21:57;;;;;;;2.13;0.77;;;6.10;92.00;;;;;;5034742;28;20459;-66
2023/01/16 04:24:23;;;;;;;1.77;0.95;;;6.10;91.90;;;;;;5035162;28;20112;-66
2023/01/16 04:26:51;;;;;;;1.67;1.00;;;6.10;91.70;;;;;;5034340;28;20025;-66
2023/01/16 04:29:17;;;;;;;2.05;0.60;;;6.10;91.70;;;;;;5035003;28;20025;-66
2023/01/16 04:31:43;;;;;;;3.38;0.85;;;6.10;91.70;;;;;;5034577;28;20037;-66
2023/01/16 04:34:08;;;;;;;2.95;0.90;;;6.10;91.70;;;;;;5034996;28;20036;-66
2023/01/16 04:36:34;;;;;;;2.88;1.13;;;6.10;92.00;;;;;;5035218;28;20447;-66
2023/01/16 04:39:00;;;;;;;3.08;0.90;;;6.10;92.10;;;;;;5034562;28;20510;-65
2023/01/16 04:41:38;;;;;;;3.22;1.00;;;6.20;92.00;;;;;;5035153;28;20111;-66
2023/01/16 04:44:05;;;;;;;1.30;0.90;;;6.20;92.30;;;;;;5035117;28;20029;-66
2023/01/16 04:46:32;;;;;;;2.25;1.02;;;6.20;92.00;;;;;;5035074;28;20034;-65
2023/01/16 04:48:57;;;;;;;2.13;0.82;;;6.10;92.40;;;;;;5034683;28;20029;-66
2023/01/16 04:51:24;;;;;;;3.72;1.10;;;6.10;92.80;;;;;;5035019;28;20033;-66
2023/01/16 04:53:50;;;;;;;1.38;0.80;;;6.10;93.40;;;;;;5034646;28;20064;-67
2023/01/16 04:56:16;;;;;;;0.80;0.70;;;6.10;93.70;;;;;;5034624;28;20029;-66
2023/01/16 04:58:41;;;;;;;2.75;0.90;;;6.00;93.60;;;;;;5034496;28;20075;-68
2023/01/16 05:01:07;;;;;;;2.70;1.05;;;6.00;94.10;;;;;;5034461;28;20497;-67
2023/01/16 05:03:32;;;;;;;2.60;1.00;;;6.00;94.10;;;;;;5033599;28;20029;-67
2023/01/16 05:05:58;;;;;;;1.85;1.15;;;6.00;94.20;;;;;;5034385;28;20450;-67
2023/01/16 05:08:27;;;;;;;0.90;0.80;;;6.00;94.40;;;;;;5034516;28;20543;-67
2023/01/16 05:10:54;;;;;;;3.38;1.48;;;6.00;94.40;;;;;;5033640;28;20348;-68
2023/01/16 05:13:22;;;;;;;3.28;1.02;;;6.00;94.70;;;;;;5034319;28;20026;-67
2023/01/16 05:15:48;;;;;;;2.40;1.02;;;5.90;95.00;;;;;;5033949;28;20490;-68
2023/01/16 05:18:14;;;;;;;1.30;0.85;;;5.90;95.50;;;;;;5040980;28;20045;-67
2023/01/16 05:20:40;;;;;;;1.00;0.88;;;6.00;95.90;;;;;;5054277;28;20033;-67
2023/01/16 05:23:05;;;;;;;4.93;1.30;;;5.90;96.10;;;;;;5053986;28;20100;-67
2023/01/16 05:25:31;;;;;;;3.33;1.17;;;6.00;96.20;;;;;;5054279;28;20055;-67
2023/01/16 05:27:57;;;;;;;2.70;1.40;;;6.00;95.90;;;;;;5053751;28;20029;-67
2023/01/16 05:30:23;;;;;;;5.80;1.13;;;5.90;95.80;;;;;;5054397;28;20059;-67
2023/01/16 05:32:49;;;;;;;1.63;1.10;;;6.00;95.60;;;;;;5053723;28;20098;-67
2023/01/16 05:35:15;;;;;;;2.58;1.20;;;5.90;95.60;;;;;;5053765;28;20053;-68
2023/01/16 05:37:42;;;;;;;2.90;1.00;;;5.90;95.70;;;;;;5053812;28;20112;-67
2023/01/16 05:40:09;;;;;;;1.15;0.90;;;5.90;96.10;;;;;;5053785;28;20498;-67
2023/01/16 05:42:35;;;;;;;4.63;1.00;;;5.90;96.20;;;;;;5054220;28;20036;-67
2023/01/16 05:45:00;;;;;;;6.45;1.88;;;5.90;96.20;;;;;;5053134;28;20029;-67
2023/01/16 05:47:26;;;;;;;1.98;1.00;;;5.90;96.30;;;;;;5053711;28;20096;-67
2023/01/16 05:49:52;;;;;;;2.42;1.10;;;5.90;96.40;;;;;;5053096;28;20386;-68
2023/01/16 05:52:17;;;;;;;2.00;1.02;;;5.80;96.30;;;;;;5053500;28;20025;-67
2023/01/16 05:54:43;;;;;;;3.03;1.75;;;5.80;96.30;;;;;;5053271;28;20027;-72
2023/01/16 05:57:09;;;;;;;2.20;1.10;;;5.80;96.10;;;;;;5053538;28;20023;-66
2023/01/16 05:59:34;;;;;;;1.85;1.40;;;5.80;96.00;;;;;;5053488;28;20041;-67
2023/01/16 06:02:00;;;;;;;3.53;1.27;;;5.80;96.10;;;;;;5053101;28;20399;-66
2023/01/16 06:04:26;;;;;;;3.25;1.40;;;5.80;95.60;;;;;;5052429;28;20116;-66
2023/01/16 06:06:51;;;;;;;6.20;1.23;;;5.80;95.60;;;;;;5053026;28;20059;-67
2023/01/16 06:09:17;;;;;;;2.80;1.38;;;5.80;95.20;;;;;;5053425;28;20027;-67
2023/01/16 06:11:43;;;;;;;1.52;0.93;;;5.80;95.00;;;;;;5053330;28;20124;-69
2023/01/16 06:14:08;;;;;;;2.63;1.17;;;5.80;95.00;;;;;;5051494;28;20033;-67
2023/01/16 06:16:34;;;;;;;2.95;1.20;;;5.80;94.70;;;;;;5053217;28;20035;-67
2023/01/16 06:19:01;;;;;;;2.75;0.90;;;5.80;94.40;;;;;;5052920;28;20021;-66
2023/01/16 06:21:27;;;;;;;1.10;0.93;;;5.80;94.00;;;;;;5053013;28;20040;-66
2023/01/16 06:23:53;;;;;;;1.73;0.80;;;5.70;94.00;;;;;;5052142;28;20029;-67
2023/01/16 06:26:19;;;;;;;5.00;1.10;;;5.70;93.90;;;;;;5053116;28;20400;-67
2023/01/16 06:28:45;;;;;;;1.77;0.90;;;5.70;93.90;;;;;;5053951;28;20024;-67
2023/01/16 06:31:12;;;;;;;2.05;1.40;;;5.80;94.20;;;;;;5053898;28;20086;-67
2023/01/16 06:33:37;;;;;;;1.45;0.98;;;5.70;94.50;;;;;;5053099;28;20032;-66
2023/01/16 06:36:04;;;;;;;2.30;1.20;;;5.70;94.70;;;;;;5052855;28;20029;-66
2023/01/16 06:38:30;;;;;;;1.20;0.82;;;5.70;94.90;;;;;;5052987;28;20075;-68
2023/01/16 06:40:55;;;;;;;1.42;0.95;;;5.60;95.10;;;;;;5052491;28;20370;-68
2023/01/16 06:43:23;;;;;;;1.20;0.90;;;5.60;95.40;;;;;;5053029;28;20053;-67
2023/01/16 06:45:49;;;;;;;1.48;0.93;;;5.60;95.70;;;;;;5052652;28;20036;-68
2023/01/16 06:48:14;;;;;;;0.77;0.60;;;5.60;95.40;;;;;;5052749;28;20032;-67
2023/01/16 06:50:40;;;;;;;3.92;0.90;;;5.50;95.40;;;;;;5052609;28;20037;-68
2023/01/16 06:53:06;;;;;;;3.47;0.80;;;5.50;95.40;;;;;;5052703;28;20021;-67
2023/01/16 06:55:31;;;;;;;2.05;0.70;;;5.50;95.40;;;;;;5052398;28;20029;-67
2023/01/16 06:57:57;;;;;;;4.53;1.00;;;5.50;95.60;;;;;;5052550;28;20044;-68
2023/01/16 07:00:23;;;;;;;2.08;0.77;;;5.50;95.30;;;;;;5067009;28;20025;-67
2023/01/16 07:02:54;;;;;;;1.90;0.65;;;5.50;95.20;;;;;;5073052;28;20426;-72
2023/01/16 07:05:20;;;;;;;1.30;0.75;;;5.50;95.10;;;;;;5073347;28;20024;-66
2023/01/16 07:07:46;;;;;;;1.25;0.68;;;5.50;95.20;;;;;;5072741;28;20025;-68
2023/01/16 07:10:12;;;;;;;1.40;0.82;;;5.50;95.50;;;;;;5071998;28;20033;-67
2023/01/16 07:12:37;;;;;;;2.25;0.88;;;5.40;95.60;;;;;;5050831;28;20110;-67
2023/01/16 07:23:28;;;;;;;1.38;0.80;;;5.40;96.60;;;;;;5052878;28;20032;-67
2023/01/16 07:25:56;;;;;;;1.80;0.90;;;5.40;96.40;;;;;;5051972;28;20025;-67
2023/01/16 07:28:22;;;;;;;3.42;1.00;;;5.40;96.60;;;;;;5052145;28;20017;-67
2023/01/16 07:30:49;;;;;;;0.98;0.70;;;5.40;96.90;;;;;;5048634;28;20029;-67
2023/01/16 07:33:15;;;;;;;1.42;0.80;;;5.30;96.80;;;;;;5051851;28;20029;-67
2023/01/16 07:35:41;;;;;;;1.55;0.70;;;5.30;97.10;;;;;;5055984;28;20036;-67
2023/01/16 07:38:06;;;;;;;1.70;0.73;;;5.30;97.30;;;;;;5055658;28;20035;-67
2023/01/16 07:40:32;;;;;;;1.15;0.80;;;5.30;97.40;;;;;;5055969;28;20127;-67
2023/01/16 07:42:58;;;;;;;0.88;0.70;;;5.30;97.50;;;;;;5055473;28;20031;-67
2023/01/16 07:45:24;;;;;;;3.33;0.93;;;5.30;97.60;;;;;;5056094;28;20075;-67
2023/01/16 07:47:49;;;;;;;2.63;1.00;;;5.40;97.60;;;;;;5055679;28;20100;-67
2023/01/16 07:50:15;;;;;;;2.28;1.10;;;5.30;97.70;;;;;;5055550;28;20065;-67
2023/01/16 07:52:43;;;;;;;1.50;0.90;;;5.30;98.00;;;;;;5044024;28;20424;-67
2023/01/16 07:55:09;;;;;;;3.40;1.27;;;5.30;98.00;;;;;;5035068;28;20025;-66
2023/01/16 07:57:38;;;;;;;2.22;1.30;;;5.30;98.00;;;;;;5035637;28;20037;-67
2023/01/16 08:00:10;;;;;;;3.28;1.10;;;5.30;98.10;;;;;;5035226;28;20044;-67
2023/01/16 08:02:36;;;;;;;4.03;1.35;;;5.30;98.40;;;;;;5034552;28;20064;-68
2023/01/16 08:05:02;;;;;;;2.50;0.90;;;5.30;98.60;;;;;;5035008;28;20224;-67
2023/01/16 08:07:28;;;;;;;4.70;1.38;;;5.30;98.60;;;;;;5035967;28;20026;-68
2023/01/16 08:09:54;;;;;;;4.35;1.20;;;5.30;98.50;;;;;;5034927;28;20128;-70
2023/01/16 08:12:19;;;;;;;2.30;1.60;;;5.30;98.60;;;;;;5035276;28;20032;-69
2023/01/16 08:14:45;;;;;;;2.17;1.17;;;5.30;98.80;;;;;;5034656;28;20458;-68
2023/01/16 08:17:10;;;;;;;2.92;1.27;;;5.30;98.90;;;;;;5034884;28;20086;-68
2023/01/16 08:19:36;;;;;;;2.95;1.20;;;5.30;98.90;;;;;;5035790;28;20112;-67
2023/01/16 08:22:02;;;;;;;3.75;1.00;;;5.30;99.00;;;;;;5034705;28;20042;-67
2023/01/16 08:24:28;;;;;;;2.60;0.98;;;5.30;99.20;;;;;;5035579;28;20030;-68
2023/01/16 08:26:57;;;;;;;2.75;1.20;;;5.30;99.10;;;;;;5035047;28;20104;-67
2023/01/16 08:29:23;;;;;;;3.25;1.00;;;5.20;99.10;;;;;;5035424;28;20026;-67
2023/01/16 08:31:49;;;;;;;9.85;1.33;;;5.30;99.30;;;;;;5035414;28;20045;-67
2023/01/16 08:34:15;;;;;;;4.72;0.93;;;5.20;99.20;;;;;;5034817;28;20278;-67
2023/01/16 08:36:41;;;;;;;2.80;1.02;;;5.20;99.20;;;;;;5035047;28;20025;-67
2023/01/16 08:39:10;;;;;;;2.22;1.13;;;5.20;99.50;;;;;;5034862;28;20026;-68
2023/01/16 08:52:38;;;;;;;2.30;0.90;;;5.30;99.20;;;;;;5035770;28;20079;-68
2023/01/16 08:55:05;;;;;;;1.38;0.90;;;5.40;99.30;;;;;;5034877;28;20030;-69
2023/01/16 08:57:31;;;;;;;2.50;0.80;;;5.40;98.90;;;;;;5034624;28;20029;-68
2023/01/16 08:59:57;;;;;;;2.47;0.60;;;5.40;98.70;;;;;;5034940;28;20101;-68
2023/01/16 09:02:24;;;;;;;2.47;0.90;;;5.40;98.80;;;;;;5035053;28;20079;-67
2023/01/16 09:04:50;;;;;;;1.85;0.90;;;5.50;98.90;;;;;;5034807;28;20060;-68
2023/01/16 09:07:16;;;;;;;1.45;0.80;;;5.50;98.90;;;;;;5034189;28;20024;-67
2023/01/16 09:09:42;;;;;;;0.93;0.70;;;5.50;98.90;;;;;;5034233;28;20033;-68
2023/01/16 09:14:55;;;;;;;1.35;0.90;;;5.50;99.30;;;;;;5034604;28;20036;-68
2023/01/16 09:17:21;;;;;;;1.52;1.00;;;5.50;99.50;;;;;;5034171;28;20108;-67
2023/01/16 09:19:46;;;;;;;1.45;0.80;;;5.50;99.90;;;;;;5034056;28;20025;-67
2023/01/16 09:22:12;;;;;;;1.65;1.00;;;5.50;99.90;;;;;;5047551;28;20381;-67
2023/01/16 09:24:38;;;;;;;1.75;0.80;;;5.50;99.80;;;;;;5053893;28;20428;-67
2023/01/16 09:27:05;;;;;;;1.35;0.90;;;5.50;99.90;;;;;;5053648;28;20091;-67
2023/01/16 09:29:31;;;;;;;2.72;1.00;;;5.50;99.90;;;;;;5054198;28;20099;-67
2023/01/16 09:31:57;;;;;;;6.13;1.25;;;5.50;99.90;;;;;;5053216;28;20486;-68
2023/01/16 09:34:23;;;;;;;3.08;0.88;;;5.50;99.80;;;;;;5053723;28;20021;-68
2023/01/16 09:36:49;;;;;;;2.40;0.82;;;5.50;99.80;;;;;;5054147;28;20033;-67
2023/01/16 09:39:16;;;;;;;4.57;1.08;;;5.40;99.90;;;;;;5053534;28;20021;-67
2023/01/16 09:44:47;;;;;;;4.10;0.90;;;5.40;99.90;;;;;;5053632;28;20551;-67
2023/01/16 09:47:13;;;;;;;3.20;1.25;;;5.50;99.90;;;;;;5053053;28;20041;-67
2023/01/16 09:50:05;;;;;;;2.38;1.17;;;5.50;99.90;;;;;;5053618;28;20505;-68
2023/01/16 09:58:35;;;;;;;5.13;1.30;;;5.50;99.90;;;;;;5052651;28;20036;-67
2023/01/16 10:01:09;;;;;;;2.95;1.45;;;5.60;99.90;;;;;;5053322;28;20037;-68
2023/01/16 10:03:41;;;;;;;4.10;1.20;;;5.60;99.90;;;;;;5051947;28;20543;-67
2023/01/16 10:06:07;;;;;;;5.90;1.10;;;5.60;99.90;;;;;;5052749;28;20107;-67
2023/01/16 10:09:03;;;;;;;2.22;0.82;;;5.60;99.90;;;;;;5053343;28;20063;-67
2023/01/16 10:11:32;;;;;;;2.42;0.90;;;5.60;99.90;;;;;;5049732;28;20037;-67
2023/01/16 10:14:22;;;;;;;1.52;1.00;;;5.60;99.90;;;;;;5052753;28;20064;-69
2023/01/16 10:17:09;;;;;;;4.67;1.00;;;5.60;99.90;;;;;;5052997;28;20029;-67
2023/01/16 10:19:44;;;;;;;1.90;0.73;;;5.70;99.90;;;;;;5052706;28;20102;-68
2023/01/16 10:22:39;;;;;;;1.88;0.95;;;5.70;99.90;;;;;;5051208;28;20044;-69
2023/01/16 10:25:28;;;;;;;3.35;0.80;;;5.70;99.70;;;;;;5051735;28;20401;-68
2023/01/16 10:28:01;;;;;;;4.05;1.08;;;5.80;99.40;;;;;;5052808;28;20044;-66
2023/01/16 10:30:37;;;;;;;1.48;1.00;;;5.80;98.90;;;;;;5052327;28;20032;-67
2023/01/16 10:33:13;;;;;;;3.25;1.00;;;5.90;98.30;;;;;;5052783;28;20466;-68
2023/01/16 10:35:45;;;;;;;0.80;0.70;;;5.80;98.10;;;;;;5052670;28;20119;-67
2023/01/16 10:38:19;;;;;;;5.03;0.75;;;5.90;98.00;;;;;;5052022;28;20033;-67
2023/01/16 10:40:47;;;;;;;1.70;0.80;;;5.80;97.70;;;;;;5052406;28;20053;-67
2023/01/16 10:51:45;;;;;;;6.10;0.90;;;5.80;97.00;;;;;;5052235;28;20040;-69
2023/01/16 10:54:11;;;;;;;1.40;1.00;;;5.90;97.10;;;;;;5052028;28;20025;-67
2023/01/16 10:56:42;;;;;;;0.95;0.73;;;5.80;97.40;;;;;;5052202;28;20052;-67
2023/01/16 10:59:11;;;;;;;2.75;1.10;;;5.80;97.40;;;;;;5051982;28;20469;-69
2023/01/16 11:01:39;;;;;;;3.40;1.33;;;5.80;97.60;;;;;;5051983;28;20029;-69
2023/01/16 11:04:09;;;;;;;1.20;1.00;;;5.80;98.00;;;;;;5050908;28;20041;-68
2023/01/16 11:06:37;;;;;;;2.78;1.02;;;5.80;98.20;;;;;;5051735;28;20037;-69
2023/01/16 11:09:06;;;;;;;8.23;1.40;;;5.70;98.60;;;;;;5054220;28;20465;-68
2023/01/16 11:20:30;;;;;;;2.28;1.05;;;5.80;95.90;;;;;;5038145;28;20068;-68
2023/01/16 11:23:12;;;;;;;2.15;1.10;;;5.70;96.70;;;;;;5038740;28;20022;-68
2023/01/16 11:25:37;;;;;;;;;;;5.70;97.60;;;;;;5038889;28;20080;-68
2023/01/16 11:28:07;;;;;;;1.02;0.80;;;5.70;97.90;;;;;;5038522;28;20223;-68
2023/01/16 11:30:40;;;;;;;1.88;0.95;;;5.80;98.40;;;;;;5038249;28;20474;-67
2023/01/16 11:33:23;;;;;;;4.88;2.83;;;5.80;98.80;;;;;;5058419;28;20028;-68
2023/01/16 11:35:57;;;;;;;3.72;1.65;;;5.80;98.80;;;;;;5058424;28;20029;-68
2023/01/16 11:38:25;;;;;;;3.25;1.50;;;5.80;98.90;;;;;;5057917;28;20043;-69
2023/01/16 11:40:55;;;;;;;4.93;1.73;;;5.80;98.90;;;;;;5058635;28;20045;-67
2023/01/16 11:46:30;;;;;;;5.50;2.30;;;5.80;98.50;;;;;;5058214;28;20125;-68
2023/01/16 11:49:13;;;;;;;3.35;1.85;;;5.70;98.60;;;;;;5058732;28;20021;-68
2023/01/16 11:51:39;;;;;;;3.17;1.70;;;5.70;98.90;;;;;;5058783;28;20033;-68
2023/01/16 11:54:15;;;;;;;2.97;1.70;;;5.70;99.50;;;;;;5058614;28;20027;-67
2023/01/16 11:57:15;;;;;;;2.55;1.70;;;5.70;99.80;;;;;;5057565;28;20082;-67
2023/01/16 11:59:53;;;;;;;3.13;2.15;;;5.70;99.90;;;;;;5059786;28;20020;-68
2023/01/16 12:02:33;;;;;;;4.13;2.28;;;5.70;99.90;;;;;;5061709;28;20037;-68
2023/01/16 12:09:02;;;;;;;3.08;2.50;;;5.60;99.90;;;;;;5058215;28;20068;-68
2023/01/16 12:11:42;;;;;;;4.38;2.83;;;5.50;99.90;;;;;;5056720;28;20041;-68
2023/01/16 12:14:17;;;;;;;4.80;3.03;;;5.50;99.90;;;;;;5058620;28;20033;-67
2023/01/16 12:17:20;;;;;;;7.18;2.75;;;5.50;99.90;;;;;;5058092;28;20029;-68
2023/01/16 12:20:07;;;;;;;4.65;3.10;;;5.60;99.90;;;;;;5057556;28;20033;-68
2023/01/16 12:22:38;;;;;;;3.75;2.60;;;5.60;99.90;;;;;;5054278;28;20202;-67
2023/01/16 12:25:14;;;;;;;5.63;2.78;;;5.60;99.90;;;;;;5055228;28;20550;-68
2023/01/16 12:27:56;;;;;;;2.85;2.50;;;5.60;99.90;;;;;;5055359;28;20030;-67
2023/01/16 12:30:36;;;;;;;3.17;2.55;;;5.70;99.90;;;;;;5054607;28;20115;-67
2023/01/16 12:33:27;;;;;;;4.73;2.53;;;5.70;99.90;;;;;;5054926;28;20036;-68
2023/01/16 12:36:03;;;;;;;2.97;2.50;;;5.60;99.90;;;;;;5054981;28;20021;-68
2023/01/16 12:39:04;;;;;;;2.28;1.65;;;5.70;99.90;;;;;;5054800;28;20086;-68
2023/01/16 12:44:47;;;;;;;1.67;1.20;;;5.50;99.90;;;;;;5054581;28;20041;-68
2023/01/16 12:47:24;;;;;;;3.42;1.30;;;5.50;99.90;;;;;;5054594;28;20067;-68
2023/01/16 12:50:03;;;;;;;3.85;1.40;;;5.40;99.90;;;;;;5053265;28;20029;-67
2023/01/16 12:52:41;;;;;;;1.75;1.20;;;5.40;99.90;;;;;;5054466;28;20075;-66
2023/01/16 12:55:34;;;;;;;2.40;1.30;;;5.30;99.90;;;;;;5054402;28;20025;-67
2023/01/16 12:58:08;;;;;;;2.08;1.40;;;5.30;99.90;;;;;;5054479;28;20051;-68
2023/01/16 13:00:47;;;;;;;2.10;1.45;;;5.30;99.90;;;;;;5053972;28;20037;-68
2023/01/16 13:03:27;;;;;;;1.88;1.45;;;5.30;99.90;;;;;;5054392;28;20029;-68
2023/01/16 13:05:56;;;;;;;4.03;2.50;;;5.30;99.90;;;;;;5054119;28;20053;-68
2023/01/16 13:08:33;;;;;;;3.40;1.50;;;5.30;99.90;;;;;;5053625;28;20277;-68
2023/01/16 13:13:55;;;;;;;1.38;1.00;;;5.30;99.90;;;;;;5054343;28;20110;-68
2023/01/16 13:16:46;;;;;;;1.58;1.20;;;5.20;99.90;;;;;;5054174;28;20036;-68
2023/01/16 13:19:20;;;;;;;4.30;1.20;;;5.20;99.90;;;;;;5053386;28;20122;-68
2023/01/16 13:22:06;;;;;;;4.28;1.50;;;5.20;99.90;;;;;;5054149;28;20033;-68
2023/01/16 13:24:40;;;;;;;3.35;1.38;;;5.20;99.90;;;;;;5053219;28;20029;-67
2023/01/16 13:27:14;;;;;;;1.88;1.40;;;5.10;99.90;;;;;;5051480;28;20032;-67
2023/01/16 13:29:54;;;;;;;3.70;1.30;;;5.10;99.90;;;;;;5053233;28;20036;-67
2023/01/16 13:32:24;;;;;;;1.10;1.00;;;5.10;99.90;;;;;;5053059;28;20028;-68
2023/01/16 13:34:55;;;;;;;2.05;1.30;;;5.10;99.90;;;;;;5052622;28;20359;-68
2023/01/16 13:37:39;;;;;;;;;;;5.10;99.90;;;;;;5053787;28;20024;-69
2023/01/16 13:40:12;;;;;;;1.88;1.13;;;5.00;99.90;;;;;;5053408;28;19920;-68
2023/01/16 13:42:47;;;;;;;2.33;1.45;;;5.00;99.90;;;;;;5053334;28;20033;-68
2023/01/16 13:45:49;;;;;;;2.20;1.50;;;4.90;99.90;;;;;;5053591;28;20025;-68
2023/01/16 13:48:18;;;;;;;2.53;1.55;;;4.90;99.90;;;;;;5053564;28;20036;-68
2023/01/16 13:50:53;;;;;;;3.53;1.95;;;4.90;99.90;;;;;;5053181;28;20519;-69
2023/01/16 13:53:22;;;;;;;4.72;2.40;;;4.80;99.90;;;;;;5052733;28;20470;-68
2023/01/16 13:55:49;;;;;;;1.95;1.77;;;4.70;99.90;;;;;;5053406;28;20079;-67
2023/01/16 13:58:21;;;;;;;4.55;2.40;;;4.70;99.90;;;;;;5052978;28;20045;-68
2023/01/16 14:01:02;;;;;;;2.85;1.85;;;4.70;99.90;;;;;;5052212;28;20492;-69
2023/01/16 14:03:30;;;;;;;2.17;1.80;;;4.60;99.90;;;;;;5052710;28;20033;-68
2023/01/16 14:06:11;;;;;;;3.05;1.90;;;4.50;99.90;;;;;;5053102;28;20028;-68
2023/01/16 14:09:04;;;;;;;3.08;2.00;;;4.50;99.90;;;;;;5052689;28;20056;-67
2023/01/16 14:11:51;;;;;;;3.20;2.80;;;4.50;99.90;;;;;;5052700;28;20431;-68
2023/01/16 14:17:06;;;;;;;5.07;2.50;;;4.50;99.90;;;;;;5053078;28;20095;-68
2023/01/16 14:19:57;;;;;;;3.40;2.83;;;4.50;99.90;;;;;;5052528;28;20424;-67
2023/01/16 14:24:57;;;;;;;7.90;2.83;;;4.50;99.90;;;;;;5052825;28;20037;-67
2023/01/16 14:27:29;;;;;;;4.05;2.63;;;4.50;99.90;;;;;;5052688;28;20473;-69
2023/01/16 14:29:59;;;;;;;4.15;2.40;;;4.40;99.90;;;;;;5057036;28;20124;-68